Time;durP1;ratioP1;P1;durP2;ratioP2;P2;SDS_P1;SDS_P2;PMS_P1;PMS_P2;Temp;Humidity;BMP_temperature;BMP_pressure;BME280_temperature;BME280_humidity;BME280_pressure;Samples;Min_cycle;Max_cycle;Signal;HPM_P1;HPM_P2
2022/05/24 00:02:07;;;;;;;;;3.00;3.00;;;;;15.54;62.27;98946.00;6284197;20;2746139;-46
2022/05/24 00:04:34;;;;;;;;;5.50;5.50;;;;;15.71;61.76;98943.59;6284817;20;2738216;-48
2022/05/24 00:07:03;;;;;;;;;4.00;4.00;;;;;15.68;61.60;98942.00;6287568;20;2744024;-49
2022/05/24 00:09:31;;;;;;;;;4.00;3.50;;;;;15.59;62.34;98938.31;6282336;20;2750442;-49
2022/05/24 00:11:58;;;;;;;;;5.50;5.50;;;;;15.56;61.90;98933.19;6287466;20;2743062;-47
2022/05/24 00:17:13;;;;;;;;;3.00;3.00;;;;;15.33;62.85;98937.19;6289875;20;2738833;-46
2022/05/24 00:19:41;;;;;;;;;6.50;5.00;;;;;15.37;62.99;98942.16;6284909;20;2749308;-48
2022/05/24 00:22:09;;;;;;;;;6.00;6.00;;;;;15.37;62.91;98946.72;6285029;20;2738824;-49
2022/05/24 00:24:36;;;;;;;;;5.00;5.00;;;;;15.39;64.21;98950.13;6284330;20;2745230;-48
2022/05/24 00:27:05;;;;;;;;;5.50;4.00;;;;;15.65;62.27;98930.59;6285802;20;2750304;-51
2022/05/24 00:29:32;;;;;;;;;5.50;4.00;;;;;15.40;62.84;98915.81;6283637;20;2743080;-49
2022/05/24 00:32:00;;;;;;;;;3.00;3.00;;;;;15.47;62.57;98917.81;6285575;20;2733663;-48
2022/05/24 00:34:28;;;;;;;;;5.00;5.00;;;;;15.41;62.90;98913.00;6284602;20;2750509;-51
2022/05/24 00:36:56;;;;;;;;;5.00;5.00;;;;;15.41;62.81;98907.56;6284207;20;2740974;-48
2022/05/24 00:39:23;;;;;;;;;7.00;6.00;;;;;15.30;63.25;98915.84;6285110;20;2740881;-48
2022/05/24 00:42:09;;;;;;;;;8.00;6.50;;;;;15.21;63.63;98904.03;6282846;20;2748250;-51
2022/05/24 00:44:46;;;;;;;;;5.00;5.00;;;;;15.05;64.65;98901.88;6282757;20;2748232;-50
2022/05/24 00:47:41;;;;;;;;;7.50;6.00;;;;;15.11;64.53;98901.34;6283069;20;2730515;-47
2022/05/24 00:50:16;;;;;;;;;3.00;0.00;;;;;15.33;63.50;98896.63;6284388;20;2738804;-46
2022/05/24 00:53:26;;;;;;;;;6.00;6.00;;;;;15.36;63.37;98897.19;6283860;20;2737801;-48
2022/05/24 00:56:10;;;;;;;;;6.00;6.00;;;;;15.34;63.21;98901.03;6282205;20;2737865;-48
2022/05/24 00:58:57;;;;;;;;;6.00;6.00;;;;;15.31;63.36;98904.03;6284211;20;2731567;-48
2022/05/24 01:01:42;;;;;;;;;5.00;5.00;;;;;15.34;63.28;98903.72;6281516;20;2725285;-59
2022/05/24 01:04:16;;;;;;;;;5.00;5.00;;;;;15.34;63.26;98899.16;6282699;20;2742002;-60
2022/05/24 01:06:44;;;;;;;;;7.00;5.00;;;;;15.27;63.22;98900.75;6282010;20;2742087;-59
2022/05/24 01:09:44;;;;;;;;;9.50;8.00;;;;;15.12;63.91;98905.75;6282825;20;2754596;-59
2022/05/24 01:12:27;;;;;;;;;8.00;6.00;;;;;15.17;63.94;98912.59;6283384;20;2741922;-59
2022/05/24 01:15:01;;;;;;;;;5.50;5.50;;;;;15.34;62.84;98903.72;6282826;20;2737933;-60
2022/05/24 01:17:29;;;;;;;;;5.50;5.00;;;;;15.09;63.53;98900.63;6283213;20;2740869;-59
2022/05/24 01:19:57;;;;;;;;;4.00;4.00;;;;;14.94;64.42;98893.94;6282329;20;2742951;-59
2022/05/24 01:23:32;;;;;;;;;5.00;5.00;;;;;14.98;64.26;98900.78;6321392;20;3450665;-58
2022/05/24 01:26:45;;;;;;;;;6.50;6.00;;;;;14.88;65.06;98908.03;6309905;20;2736722;-60
2022/05/24 01:29:13;;;;;;;;;6.00;5.00;;;;;15.00;64.61;98906.88;6279847;20;2735675;-59
2022/05/24 01:37:18;;;;;;;;;6.00;6.00;;;;;15.28;63.17;98894.34;6282236;20;2738821;-52
2022/05/24 01:39:56;;;;;;;;;5.00;5.00;;;;;15.15;63.82;98905.44;6283993;20;2740956;-49
2022/05/24 01:42:25;;;;;;;;;6.00;5.00;;;;;15.27;63.76;98916.13;6279346;20;2748594;-51
2022/05/24 01:45:16;;;;;;;;;4.00;4.00;;;;;15.22;63.39;98919.28;6283835;20;2730599;-52
2022/05/24 01:47:54;;;;;;;;;5.50;5.50;;;;;15.18;63.43;98911.59;6282035;20;2742026;-51
2022/05/24 01:50:24;;;;;;;;;7.50;5.00;;;;;15.18;63.76;98911.59;6279107;20;2735668;-49
2022/05/24 01:53:04;;;;;;;;;5.50;5.50;;;;;15.17;64.16;98926.97;6282157;20;2746081;-48
2022/05/24 01:55:40;;;;;;;;;7.00;5.00;;;;;15.08;64.36;98912.41;6277810;20;2739846;-51
2022/05/24 01:58:15;;;;;;;;;6.00;6.00;;;;;15.03;64.37;98922.81;6275315;20;2744078;-50
2022/05/24 02:01:28;;;;;;;;;5.75;5.75;;;;;14.99;64.34;98925.94;6289598;20;1806637;-51
2022/05/24 02:03:55;;;;;;;;;6.00;6.00;;;;;15.14;64.13;98928.09;6312533;20;2744057;-58
2022/05/24 02:06:27;;;;;;;;;0.50;0.00;;;;;15.13;64.02;98926.38;6279950;20;2733340;-56
2022/05/24 02:08:56;;;;;;;;;7.00;7.00;;;;;15.04;64.05;98934.50;6283950;20;2735668;-54
2022/05/24 02:11:35;;;;;;;;;4.50;4.50;;;;;15.26;63.74;98939.59;6283873;20;2740876;-53
2022/05/24 02:14:18;;;;;;;;;6.50;6.00;;;;;15.04;64.29;98942.59;6283466;20;2748180;-55
2022/05/24 02:17:03;;;;;;;;;6.50;5.50;;;;;15.15;64.12;98940.59;6283677;20;2736781;-52
2022/05/24 02:19:39;;;;;;;;;5.80;5.80;;;;;15.16;64.07;98941.44;6304745;20;2741915;-56
2022/05/24 02:22:16;;;;;;;;;7.50;7.50;;;;;15.13;63.63;98937.19;6313372;20;2737802;-55
2022/05/24 02:24:44;;;;;;;;;6.00;6.00;;;;;15.18;63.73;98933.22;6278690;20;2748262;-55
2022/05/24 02:27:13;;;;;;;;;5.00;5.00;;;;;15.02;64.48;98940.03;6289731;20;2739825;-55
2022/05/24 02:29:40;;;;;;;;;7.00;7.00;;;;;15.04;64.31;98935.34;6287217;20;2746118;-60
2022/05/24 02:32:11;;;;;;;;;5.50;5.00;;;;;14.83;65.91;98935.47;6287591;20;2746169;-59
2022/05/24 02:34:39;;;;;;;;;4.00;4.00;;;;;15.08;64.54;98954.84;6288245;20;2748354;-59
2022/05/24 02:37:06;;;;;;;;;5.00;5.00;;;;;15.17;64.51;98958.56;6285822;20;2732638;-59
2022/05/24 02:41:28;;;;;;;;;5.50;5.50;;;;;15.00;65.02;98954.69;6285707;20;2743053;-60
2022/05/24 02:42:24;;;;;;;;;5.20;5.20;;;;;15.23;64.57;98947.16;6311197;20;2739842;-60
2022/05/24 02:44:51;;;;;;;;;5.50;5.50;;;;;15.14;65.11;98930.81;6320130;20;2745046;-60
2022/05/24 02:47:19;;;;;;;;;5.50;5.50;;;;;14.74;66.67;98936.28;6287321;20;2743133;-60
2022/05/24 02:49:47;;;;;;;;;7.00;7.00;;;;;14.94;65.83;98926.38;6287380;20;2735754;-60
2022/05/24 02:52:18;;;;;;;;;6.43;6.43;;;;;14.75;66.65;98904.75;6328149;20;3447293;-60
2022/05/24 02:54:46;;;;;;;;;7.00;5.50;;;;;14.46;67.61;98905.50;6315235;20;2745214;-60
2022/05/24 02:57:14;;;;;;;;;8.00;6.00;;;;;14.63;67.11;98906.69;6285771;20;2741948;-61
2022/05/24 02:59:42;;;;;;;;;6.50;6.50;;;;;14.51;67.85;98927.56;6287562;20;2727408;-52
2022/05/24 03:02:11;;;;;;;;;7.00;7.00;;;;;14.63;66.24;98907.53;6286797;20;2736710;-48
2022/05/24 03:04:39;;;;;;;;;5.00;5.00;;;;;14.30;67.71;98903.31;6283478;20;2747136;-50
2022/05/24 03:09:56;;;;;;;;;5.86;5.86;;;;;14.59;70.24;98922.34;6328691;20;3457543;-47
2022/05/24 03:15:12;;;;;;;;;7.00;7.00;;;;;14.61;69.98;98947.38;6289689;20;2737754;-60
2022/05/24 03:17:41;;;;;;;;;7.80;7.00;;;;;14.65;71.22;98954.19;6311707;20;2728472;-60
2022/05/24 03:20:10;;;;;;;;;6.00;6.00;;;;;14.78;70.32;98962.06;6317580;20;2740897;-60
2022/05/24 03:22:38;;;;;;;;;7.50;7.50;;;;;14.71;69.04;98972.53;6286688;20;2731547;-52
2022/05/24 03:25:06;;;;;;;;;8.00;8.00;;;;;14.57;71.93;98977.50;6287312;20;2733639;-49
2022/05/24 03:27:35;;;;;;;;;7.00;6.00;;;;;14.52;71.16;98980.56;6286639;20;2743360;-53
2022/05/24 03:30:04;;;;;;;;;6.00;6.00;;;;;14.33;71.92;98985.91;6283461;20;2746230;-54
2022/05/24 03:32:35;;;;;;;;;5.57;5.57;;;;;14.38;72.31;98994.47;6329718;20;3447396;-52
2022/05/24 03:35:06;;;;;;;;;6.50;6.50;;;;;14.48;71.91;98998.91;6318934;20;2744085;-53
2022/05/24 03:37:35;;;;;;;;;9.50;7.00;;;;;14.63;70.93;98996.69;6277554;20;2748329;-53
2022/05/24 03:40:05;;;;;;;;;8.50;8.00;;;;;14.01;75.31;98998.53;6283980;20;2756596;-55
2022/05/24 03:42:33;;;;;;;;;8.00;8.00;;;;;14.32;77.30;98989.59;6288532;20;2747152;-59
2022/05/24 03:45:01;;;;;;;;;7.50;7.50;;;;;14.38;78.59;98989.06;6288052;20;2742012;-59
2022/05/24 03:47:31;;;;;;;;;16.40;8.80;;;;;14.06;82.53;98992.75;6309344;20;2784624;-50
2022/05/24 03:49:59;;;;;;;;;9.00;9.00;;;;;14.05;82.26;98993.72;6284902;20;2750386;-49
2022/05/24 03:52:26;;;;;;;;;9.00;9.00;;;;;13.74;84.76;98999.06;6282173;20;2742990;-53
2022/05/24 03:54:55;;;;;;;;;11.00;10.33;;;;;13.26;91.22;99002.22;6279639;20;2794097;-58
2022/05/24 04:00:16;;;;;;;;;9.50;9.50;;;;;13.59;90.26;99008.47;6288419;20;2769017;-58
2022/05/24 04:02:46;;;;;;;;;12.00;10.40;;;;;13.73;90.05;99036.97;6307555;20;2791986;-59
2022/05/24 04:05:14;;;;;;;;;11.00;9.50;;;;;13.94;87.54;99042.38;6282285;20;2780592;-49
2022/05/24 04:07:42;;;;;;;;;9.00;9.00;;;;;13.87;88.63;99062.78;6287693;20;2749200;-47
2022/05/24 04:10:14;;;;;;;;;12.00;10.00;;;;;13.96;88.13;99070.09;6307040;20;2784827;-48
2022/05/24 04:12:44;;;;;;;;;12.60;11.00;;;;;13.94;88.72;99077.47;6310407;20;2791951;-48
2022/05/24 04:15:14;;;;;;;;;14.67;11.00;;;;;13.85;90.11;99084.50;6283615;20;2794008;-48
2022/05/24 04:17:42;;;;;;;;;12.00;10.00;;;;;13.90;90.85;99086.78;6310510;20;2791933;-49
2022/05/24 04:20:11;;;;;;;;;10.50;9.00;;;;;13.95;89.96;99076.47;6281990;20;2770050;-50
2022/05/24 04:22:38;;;;;;;;;10.50;10.50;;;;;13.43;91.85;99070.06;6238471;20;2793024;-58
2022/05/24 04:25:08;;;;;;;;;11.00;10.00;;;;;13.59;92.21;99068.69;6280505;20;2791014;-58
2022/05/24 04:27:38;;;;;;;;;12.80;11.40;;;;;13.68;91.73;99072.44;6334121;20;2790967;-58
2022/05/24 04:30:09;;;;;;;;;10.00;10.00;;;;;13.53;93.33;99062.91;6282023;20;2785739;-48
2022/05/24 04:32:38;;;;;;;;;12.40;11.60;;;;;13.42;93.53;99080.00;6303782;20;2809691;-57
2022/05/24 04:35:07;;;;;;;;;11.00;10.00;;;;;13.35;91.67;99079.66;6277679;20;2796226;-57
2022/05/24 04:37:35;;;;;;;;;16.00;14.00;;;;;13.29;93.79;99080.16;6282215;20;2803493;-51
2022/05/24 04:40:07;;;;;;;;;10.33;10.33;;;;;13.44;92.93;99079.88;6277571;20;2788890;-59
2022/05/24 04:42:38;;;;;;;;;13.40;11.80;;;;;13.27;92.82;99090.25;6332448;20;2805506;-52
2022/05/24 04:45:13;;;;;;;;;14.00;11.00;;;;;13.35;92.68;99087.75;6278056;20;2786972;-53
2022/05/24 04:47:41;;;;;;;;;12.00;12.00;;;;;13.26;94.25;99075.03;6307281;20;2795156;-47
2022/05/24 04:50:13;;;;;;;;;11.33;11.33;;;;;13.29;93.80;99077.47;6307455;20;3507729;-46
2022/05/24 04:52:42;;;;;;;;;12.00;12.00;;;;;13.00;98.49;99076.28;6308440;20;2794032;-55
2022/05/24 04:55:14;;;;;;;;;13.00;12.00;;;;;13.32;96.67;99066.44;6277150;20;2786803;-59
2022/05/24 04:57:44;;;;;;;;;13.67;12.33;;;;;13.23;96.03;99051.00;6277342;20;2786816;-53
2022/05/24 05:00:15;;;;;;;;;15.00;12.00;;;;;13.21;96.34;99052.09;6308565;20;2800319;-51
2022/05/24 05:02:43;;;;;;;;;12.00;12.00;;;;;13.05;97.09;99049.81;6312546;20;2793995;-51
2022/05/24 05:05:13;;;;;;;;;10.33;10.33;;;;;13.07;98.21;99048.69;6279801;20;2792006;-51
2022/05/24 05:07:41;;;;;;;;;13.00;11.50;;;;;13.29;96.95;99041.56;6312553;20;2783575;-50
2022/05/24 05:10:12;;;;;;;;;14.00;14.00;;;;;13.22;97.72;99043.00;6278285;20;2804525;-58
2022/05/24 05:12:41;;;;;;;;;12.00;10.33;;;;;13.23;96.06;99055.53;6278862;20;2789922;-47
2022/05/24 05:15:10;;;;;;;;;11.00;11.00;;;;;13.21;96.61;99042.16;6313333;20;2788486;-55
2022/05/24 05:17:39;;;;;;;;;16.33;14.00;;;;;12.96;98.26;99038.81;6278543;20;3533635;-53
2022/05/24 05:20:08;;;;;;;;;12.00;12.00;;;;;13.10;99.50;99037.66;6307926;20;3536758;-52
2022/05/24 05:22:38;;;;;;;;;13.67;13.33;;;;;13.31;97.23;99043.16;6308272;20;3530032;-55
2022/05/24 05:25:08;;;;;;;;;14.33;14.33;;;;;13.40;98.01;99049.59;6306886;20;3530468;-58
2022/05/24 05:27:37;;;;;;;;;16.67;14.00;;;;;13.32;99.89;99044.88;6307874;20;3536799;-52
2022/05/24 05:32:53;;;;;;;;;13.00;13.00;;;;;13.09;98.76;99064.75;6280404;20;2804449;-58
2022/05/24 05:35:22;;;;;;;;;12.00;12.00;;;;;12.85;100.00;99075.66;6276028;20;3513758;-49
2022/05/24 05:37:50;;;;;;;;;19.50;16.00;;;;;12.99;100.00;99077.28;6307267;20;2489839;-58
2022/05/24 05:40:18;;;;;;;;;15.00;15.00;;;;;12.86;100.00;99082.78;6274044;20;3521223;-51
2022/05/24 05:42:47;;;;;;;;;23.50;22.00;;;;;12.99;100.00;99090.75;6307571;20;2831652;-52
2022/05/24 05:45:16;;;;;;;;;17.33;17.33;;;;;13.05;100.00;99092.94;6276839;20;3566908;-52
2022/05/24 05:47:45;;;;;;;;;19.50;18.50;;;;;12.95;100.00;99090.13;6276472;20;2837776;-53
2022/05/24 05:50:13;;;;;;;;;18.00;16.00;;;;;13.09;100.00;99097.09;6273390;20;2835759;-53
2022/05/24 05:52:42;;;;;;;;;17.00;17.00;;;;;12.82;100.00;99084.00;6278042;20;3562744;-52
2022/05/24 05:55:10;;;;;;;;;19.00;17.50;;;;;13.37;100.00;99090.31;6276475;20;2496076;-51
2022/05/24 05:57:41;;;;;;;;;17.67;17.67;;;;;13.30;98.58;99083.75;6274693;20;3558551;-58
2022/05/24 06:00:11;;;;;;;;;17.00;16.00;;;;;13.18;99.60;99091.78;6275004;20;3556516;-47
2022/05/24 06:02:39;;;;;;;;;19.50;14.50;;;;;13.24;100.00;99090.44;6283880;20;2496565;-53
2022/05/24 06:05:10;;;;;;;;;13.33;13.33;;;;;13.10;100.00;99082.63;6279916;20;3525523;-51
2022/05/24 06:07:39;;;;;;;;;19.00;16.50;;;;;13.35;100.00;99087.75;6311425;20;2835728;-50
2022/05/24 06:10:11;;;;;;;;;20.33;18.33;;;;;13.22;100.00;99092.41;6280473;20;3570087;-53
2022/05/24 06:12:39;;;;;;;;;20.00;17.00;;;;;13.51;99.66;99102.69;6280309;20;3565863;-49
2022/05/24 06:15:09;;;;;;;;;16.00;16.00;;;;;13.55;99.81;99104.97;6313054;20;2489907;-49
2022/05/24 06:17:52;;;;;;;;;12.00;11.00;;;;;13.55;99.85;99096.03;6283486;20;2794068;-52
2022/05/24 06:20:27;;;;;;;;;15.00;15.00;;;;;13.51;99.61;99094.59;6286567;20;2785723;-50
2022/05/24 06:22:57;;;;;;;;;14.00;14.00;;;;;13.39;100.00;99097.28;6282134;20;3537731;-52
2022/05/24 06:25:30;;;;;;;;;18.00;15.00;;;;;13.57;100.00;99097.59;6312160;20;3554539;-48
2022/05/24 06:28:00;;;;;;;;;17.67;16.67;;;;;13.59;99.72;99098.34;6281097;20;3550315;-58
2022/05/24 06:30:32;;;;;;;;;13.50;13.50;;;;;13.56;100.00;99103.13;6308396;20;2500385;-45
2022/05/24 06:33:01;;;;;;;;;14.00;13.67;;;;;13.29;100.00;99107.13;6281413;20;3518054;-46
2022/05/24 06:35:30;;;;;;;;;14.67;14.67;;;;;13.44;100.00;99106.84;6311273;20;3536725;-47
2022/05/24 06:37:58;;;;;;;;;20.33;15.67;;;;;13.44;100.00;99104.16;6278437;20;3549243;-47
2022/05/24 06:40:27;;;;;;;;;18.33;16.33;;;;;13.41;100.00;99101.72;6312368;20;3560649;-49
2022/05/24 06:42:56;;;;;;;;;17.00;17.00;;;;;13.65;100.00;99101.50;6313437;20;3551263;-52
2022/05/24 06:45:24;;;;;;;;;21.00;18.00;;;;;13.66;99.48;99101.38;6280562;20;2487779;-58
2022/05/24 06:47:53;;;;;;;;;18.00;15.33;;;;;13.74;99.82;99098.88;6282260;20;3541916;-52
2022/05/24 06:50:22;;;;;;;;;18.00;17.00;;;;;13.74;99.90;99104.28;6281032;20;3560626;-51
2022/05/24 06:52:55;;;;;;;;;17.50;16.50;;;;;13.57;100.00;99094.06;6282996;20;2492009;-59
2022/05/24 06:55:25;;;;;;;;;16.00;16.00;;;;;13.76;99.93;99101.47;6281575;20;3552505;-47
2022/05/24 06:57:53;;;;;;;;;19.00;16.50;;;;;13.92;98.85;99099.19;6277623;20;2491967;-52
2022/05/24 07:03:15;;;;;;;;;20.00;16.00;;;;;13.83;99.64;99094.56;6279809;20;2837900;-50
2022/05/24 07:05:45;;;;;;;;;18.67;18.67;;;;;14.15;98.94;99096.38;6281774;20;3561680;-59
2022/05/24 07:08:13;;;;;;;;;17.50;17.50;;;;;14.08;99.47;99089.78;6279837;20;2492405;-51
2022/05/24 07:10:42;;;;;;;;;18.00;16.00;;;;;14.20;98.28;99097.69;6278789;20;2491901;-52
2022/05/24 07:13:19;;;;;;;;;18.00;17.00;;;;;14.28;97.84;99097.88;6280830;20;2833055;-49
2022/05/24 07:15:50;;;;;;;;;17.33;16.67;;;;;14.21;97.84;99102.09;6279611;20;3553505;-59
2022/05/24 07:18:19;;;;;;;;;19.33;17.67;;;;;14.32;98.37;99092.19;6277148;20;3557549;-59
2022/05/24 07:20:47;;;;;;;;;16.00;16.00;;;;;14.30;98.90;99094.16;6276149;20;2500303;-59
2022/05/24 07:23:26;;;;;;;;;21.00;16.00;;;;;14.17;98.96;99092.56;6279581;20;2493984;-49
2022/05/24 07:26:18;;;;;;;;;25.00;18.00;;;;;14.06;99.96;99087.22;6279826;20;2840295;-50
2022/05/24 07:29:06;;;;;;;;;20.50;17.50;;;;;14.50;100.00;99087.91;6278579;20;2830583;-49
2022/05/24 07:31:38;;;;;;;;;21.00;18.00;;;;;14.62;98.44;99078.75;6281482;20;2837863;-59
2022/05/24 07:34:07;;;;;;;;;20.33;20.00;;;;;14.52;99.52;99083.22;6281186;20;2838805;-52
2022/05/24 07:36:34;;;;;;;;;9.00;9.00;;;;;14.77;98.09;99084.66;6310666;20;2757569;-58
2022/05/24 07:39:03;;;;;;;;;19.00;17.00;;;;;14.87;97.61;99084.69;6280266;20;2835819;-58
2022/05/24 07:47:25;;;;;;;;;15.00;14.00;;;;;15.12;95.64;99084.19;6278749;20;2494505;-60
2022/05/24 07:49:53;;;;;;;;;15.00;15.00;;;;;15.09;96.44;99079.06;6276012;20;2802338;-46
2022/05/24 07:52:21;;;;;;;;;15.50;15.50;;;;;15.06;96.44;99060.44;6276804;20;2496074;-53
2022/05/24 07:54:50;;;;;;;;;17.00;16.67;;;;;15.05;95.91;99057.84;6277999;20;3547213;-54
2022/05/24 07:57:20;;;;;;;;;13.67;13.67;;;;;14.95;95.56;99049.72;6276479;20;3529446;-50
2022/05/24 07:59:51;;;;;;;;;15.50;15.50;;;;;15.16;94.34;99057.72;6311398;20;2821106;-46
2022/05/24 08:02:22;;;;;;;;;13.00;13.00;;;;;15.17;94.60;99056.75;6281148;20;3525473;-44
2022/05/24 08:04:54;;;;;;;;;17.50;17.00;;;;;15.54;95.44;99070.47;6308364;20;2487770;-54
2022/05/24 08:07:21;;;;;;;;;17.00;15.50;;;;;15.47;92.56;99066.59;6278712;20;2483600;-52
2022/05/24 08:09:49;;;;;;;;;11.50;11.00;;;;;15.53;91.06;99063.34;6279681;20;2785774;-52
2022/05/24 08:12:18;;;;;;;;;18.33;16.00;;;;;15.88;91.90;99074.66;6280049;20;3562915;-50
2022/05/24 08:14:47;;;;;;;;;17.00;14.67;;;;;15.91;91.13;99069.78;6279993;20;3546072;-49
2022/05/24 08:17:15;;;;;;;;;13.00;12.50;;;;;16.13;90.49;99071.31;6283333;20;2799267;-53
2022/05/24 08:19:43;;;;;;;;;7.25;5.00;;;;;16.59;89.63;99082.34;6300681;20;1803510;-49
2022/05/24 08:22:12;;;;;;;;;11.67;11.67;;;;;16.52;87.44;99078.50;6309611;20;3537730;-54
2022/05/24 08:24:41;;;;;;;;;15.00;14.00;;;;;16.64;89.16;99080.03;6278235;20;3525313;-56
2022/05/24 08:27:14;;;;;;;;;9.60;8.40;;;;;16.51;86.17;99082.22;6305526;20;2759735;-55
2022/05/24 08:29:44;;;;;;;;;14.00;13.00;;;;;16.73;87.24;99068.31;6281821;20;2788806;-56
2022/05/24 08:32:13;;;;;;;;;14.33;14.33;;;;;16.87;85.60;99081.38;6278923;20;3520025;-58
2022/05/24 08:34:41;;;;;;;;;12.50;12.00;;;;;16.65;85.11;99079.03;6315154;20;2786850;-54
2022/05/24 08:37:10;;;;;;;;;15.00;13.67;;;;;16.83;86.32;99066.44;6278264;20;3521087;-58
2022/05/24 08:39:57;;;;;;;;;15.00;14.00;;;;;17.35;86.84;99079.41;6307280;20;3527440;-55
2022/05/24 08:43:10;;;;;;;;;10.00;10.00;;;;;17.66;81.86;99087.22;6277098;20;3505464;-57
2022/05/24 08:49:03;;;;;;;;;10.80;10.80;;;;;17.86;79.73;99087.97;6303128;20;2790873;-58
2022/05/24 08:52:01;;;;;;;;;10.00;9.00;;;;;17.61;76.76;99093.09;6279489;20;2773224;-58
2022/05/24 08:54:43;;;;;;;;;11.00;11.00;;;;;17.65;81.03;99086.38;6285668;20;2792004;-57
2022/05/24 08:57:50;;;;;;;;;11.00;11.00;;;;;17.71;80.08;99082.19;6284580;20;2799316;-49
2022/05/24 09:00:42;;;;;;;;;10.00;10.00;;;;;17.99;79.32;99082.97;6274432;20;3518117;-49
2022/05/24 09:03:11;;;;;;;;;12.67;12.33;;;;;17.96;79.19;99077.88;6306082;20;3533626;-48
2022/05/24 09:05:56;;;;;;;;;9.00;8.00;;;;;17.84;77.28;99084.53;6276305;20;2745595;-59
2022/05/24 09:08:37;;;;;;;;;10.33;10.33;;;;;17.95;79.47;99085.13;6277421;20;2788938;-59
2022/05/24 09:12:08;;;;;;;;;11.60;9.00;;;;;17.92;75.62;99090.03;6329612;20;2764921;-58
2022/05/24 09:15:15;;;;;;;;;9.00;9.00;;;;;18.10;77.17;99095.47;6304312;20;2756497;-58
2022/05/24 09:18:29;;;;;;;;;11.00;11.00;;;;;18.19;74.67;99091.78;6274891;20;2791926;-58
2022/05/24 09:20:58;;;;;;;;;11.33;10.00;;;;;18.00;79.38;99090.09;6307856;20;2789912;-59
2022/05/24 09:23:39;;;;;;;;;10.60;10.00;;;;;18.20;77.09;99086.22;6336541;20;2782554;-51
2022/05/24 09:26:13;;;;;;;;;13.33;11.00;;;;;18.19;75.47;99092.66;6276399;20;2794023;-60
2022/05/24 09:28:57;;;;;;;;;7.80;7.80;;;;;18.48;76.04;99082.50;6339328;20;2744525;-59
2022/05/24 09:31:46;;;;;;;;;10.67;9.00;;;;;18.96;75.48;99087.41;6313610;20;2769066;-59
2022/05/24 09:34:18;;;;;;;;;11.00;10.00;;;;;18.62;76.87;99088.19;6310708;20;2788843;-58
2022/05/24 09:37:06;;;;;;;;;15.33;12.00;;;;;20.00;73.17;99101.66;6319735;20;2802348;-59
2022/05/24 09:39:56;;;;;;;;;7.80;7.80;;;;;20.27;69.75;99101.31;6341548;20;2754483;-60
2022/05/24 09:42:36;;;;;;;;;9.00;7.50;;;;;20.00;69.17;99093.47;6288600;20;2735748;-60
2022/05/24 09:45:27;;;;;;;;;9.40;8.20;;;;;20.52;68.41;99102.16;6315197;20;2761714;-61
2022/05/24 09:48:00;;;;;;;;;8.00;8.00;;;;;20.16;68.37;99096.19;6311411;20;1924452;-62
2022/05/24 09:50:39;;;;;;;;;9.50;8.50;;;;;20.46;70.03;99094.66;6322054;20;2754429;-61
2022/05/24 09:53:22;;;;;;;;;10.20;8.00;;;;;20.57;68.39;99093.47;6316403;20;2773189;-56
2022/05/24 09:56:00;;;;;;;;;7.00;7.00;;;;;19.70;71.23;99101.28;6296901;20;2737780;-61
2022/05/24 09:58:39;;;;;;;;;9.00;9.00;;;;;19.72;71.96;99101.94;6286608;20;2754423;-55
2022/05/24 10:01:30;;;;;;;;;9.40;9.40;;;;;19.77;71.95;99104.16;6313399;20;2780493;-55
2022/05/24 10:04:35;;;;;;;;;11.00;9.00;;;;;19.74;70.88;99113.53;6283564;20;2773213;-57
2022/05/24 10:07:31;;;;;;;;;11.00;9.33;;;;;19.53;70.52;99122.97;6284121;20;3504420;-55
2022/05/24 10:10:26;;;;;;;;;11.50;11.50;;;;;19.18;70.00;99115.88;6319570;20;2792960;-55
2022/05/24 10:13:23;;;;;;;;;10.67;10.67;;;;;19.02;71.01;99108.50;6285212;20;2788875;-58
2022/05/24 10:16:07;;;;;;;;;9.50;9.00;;;;;19.61;70.86;99103.09;6324037;20;2756955;-58
2022/05/24 10:18:38;;;;;;;;;9.33;9.00;;;;;20.23;70.74;99113.59;6284050;20;2775376;-57
2022/05/24 10:21:16;;;;;;;;;9.67;9.67;;;;;20.54;68.11;99121.09;6316884;20;2769085;-56
2022/05/24 10:24:49;;;;;;;;;10.67;10.67;;;;;20.32;69.60;99122.59;6316065;20;3513788;-55
2022/05/24 10:27:46;;;;;;;;;12.50;11.00;;;;;20.46;67.52;99130.13;6320890;20;2795067;-52
2022/05/24 10:30:31;;;;;;;;;12.00;11.00;;;;;20.29;70.91;99129.25;6287918;20;2781518;-59
2022/05/24 10:39:46;;;;;;;;;10.00;8.00;;;;;21.23;65.59;99127.75;6313825;20;2758011;-59
2022/05/24 10:42:35;;;;;;;;;13.00;12.00;;;;;21.45;65.68;99119.81;6311934;20;3503362;-59
2022/05/24 10:45:18;;;;;;;;;10.00;10.00;;;;;22.30;62.85;99124.41;6314442;20;3515910;-59
2022/05/24 10:48:09;;;;;;;;;11.67;10.00;;;;;22.25;62.91;99129.56;6314357;20;3509641;-49
2022/05/24 10:50:52;;;;;;;;;9.33;9.33;;;;;22.11;64.48;99131.19;6313371;20;2760734;-59
2022/05/24 10:53:37;;;;;;;;;10.33;9.33;;;;;20.94;67.34;99128.34;6313714;20;3495227;-58
2022/05/24 10:56:40;;;;;;;;;9.40;9.40;;;;;20.82;64.34;99125.13;6338708;20;2782659;-49
2022/05/24 10:59:32;;;;;;;;;7.20;7.20;;;;;20.59;62.83;99126.91;6310795;20;2744012;-56
2022/05/24 11:02:55;;;;;;;;;9.20;7.80;;;;;21.10;66.94;99116.53;6306844;20;2739973;-59
2022/05/24 11:05:27;;;;;;;;;7.80;7.80;;;;;21.60;67.50;99128.97;6339465;20;2754449;-59
2022/05/24 11:08:36;;;;;;;;;10.00;10.00;;;;;21.96;65.96;99130.28;6310135;20;2783593;-61
2022/05/24 11:11:48;;;;;;;;;9.20;8.20;;;;;22.25;64.23;99122.25;6308140;20;2741931;-58
2022/05/24 11:14:26;;;;;;;;;10.67;7.67;;;;;21.71;62.99;99114.03;6311336;20;2766939;-51
2022/05/24 11:16:56;;;;;;;;;6.67;6.67;;;;;21.54;63.61;99113.31;6322665;20;2737748;-62
2022/05/24 11:19:38;;;;;;;;;9.40;8.00;;;;;20.74;61.87;99110.66;6340433;20;2758608;-61
2022/05/24 11:23:16;;;;;;;;;9.20;8.20;;;;;21.46;64.42;99107.88;6310902;20;2751288;-59
2022/05/24 11:26:28;;;;;;;;;7.33;7.33;;;;;22.08;65.33;99115.16;6281762;20;2748155;-61
2022/05/24 11:29:48;;;;;;;;;8.33;7.67;;;;;21.32;65.67;99109.44;6311583;20;2746097;-61
2022/05/24 11:32:53;;;;;;;;;10.20;9.00;;;;;21.18;62.68;99108.31;6339811;20;2756672;-60
2022/05/24 11:35:42;;;;;;;;;8.40;7.20;;;;;21.34;64.01;99106.53;6306321;20;2743001;-51
2022/05/24 11:38:43;;;;;;;;;11.80;9.00;;;;;21.17;61.87;99098.44;6339169;20;2771409;-53
2022/05/24 11:41:33;;;;;;;;;10.60;9.80;;;;;21.47;63.94;99085.00;6302852;20;2773610;-61
2022/05/24 11:44:31;;;;;;;;;6.43;6.29;;;;;21.40;63.96;99081.25;6327930;20;3445042;-59
2022/05/24 11:47:01;;;;;;;;;9.00;9.00;;;;;22.42;62.81;99086.53;6340945;20;2748212;-56
2022/05/24 11:49:58;;;;;;;;;9.00;9.00;;;;;22.76;59.37;99086.03;6281551;20;2742055;-58
2022/05/24 11:53:01;;;;;;;;;9.00;8.00;;;;;22.86;58.30;99086.59;6315465;20;2753388;-56
2022/05/24 11:55:55;;;;;;;;;8.00;8.00;;;;;22.35;58.93;99094.63;6319767;20;2748210;-61
2022/05/24 11:58:32;;;;;;;;;7.33;7.33;;;;;22.59;60.31;99096.28;6361662;20;1794096;-62
2022/05/24 12:01:11;;;;;;;;;9.80;7.00;;;;;21.96;60.48;99086.53;6337272;20;2748197;-64
2022/05/24 12:10:11;;;;;;;;;8.67;8.67;;;;;22.34;58.40;99082.00;6279038;20;2745082;-62
2022/05/24 12:13:04;;;;;;;;;7.33;7.33;;;;;22.34;59.43;99074.63;6321081;20;2754441;-62
2022/05/24 12:15:33;;;;;;;;;7.33;7.33;;;;;22.45;58.70;99073.31;6322898;20;2739940;-61
2022/05/24 12:18:01;;;;;;;;;13.50;12.00;;;;;22.73;60.84;99081.78;6320914;20;2483639;-61
2022/05/24 12:20:35;;;;;;;;;13.00;12.00;;;;;22.77;59.68;99085.81;6314297;20;2809755;-61
2022/05/24 12:23:09;;;;;;;;;8.20;8.20;;;;;22.94;59.64;99067.34;6340213;20;2738894;-63
2022/05/24 12:26:13;;;;;;;;;9.33;9.00;;;;;22.48;59.10;99056.53;6283351;20;2764973;-63
2022/05/24 12:28:54;;;;;;;;;11.33;11.00;;;;;22.94;59.97;99056.38;6305625;20;3508675;-60
2022/05/24 12:31:30;;;;;;;;;7.00;6.60;;;;;23.09;58.25;99052.81;6329282;20;2742022;-59
2022/05/24 12:34:13;;;;;;;;;6.00;6.00;;;;;22.78;57.66;99053.84;6296941;20;2748154;-59
2022/05/24 12:36:45;;;;;;;;;7.33;7.33;;;;;23.09;57.36;99052.81;6274697;20;2746136;-61
2022/05/24 12:39:35;;;;;;;;;11.33;11.00;;;;;22.67;59.43;99055.16;6309826;20;2785700;-60